sensor_id;sensor_type;location;lat;lon;timestamp;temperature;humidity
59025;DHT22;44806;48.008;13.666;2022-07-18T00:02:01;16.90;84.40
59025;DHT22;44806;48.008;13.666;2022-07-18T00:04:28;16.70;84.00
59025;DHT22;44806;48.008;13.666;2022-07-18T00:06:56;16.70;84.30
59025;DHT22;44806;48.008;13.666;2022-07-18T00:09:24;16.50;86.10
59025;DHT22;44806;48.008;13.666;2022-07-18T00:11:52;16.40;88.60
59025;DHT22;44806;48.008;13.666;2022-07-18T00:14:20;16.30;88.20
59025;DHT22;44806;48.008;13.666;2022-07-18T00:16:48;16.20;89.30
59025;DHT22;44806;48.008;13.666;2022-07-18T00:19:15;16.10;90.30
59025;DHT22;44806;48.008;13.666;2022-07-18T00:21:43;16.10;90.30
59025;DHT22;44806;48.008;13.666;2022-07-18T00:24:11;16.10;90.20
59025;DHT22;44806;48.008;13.666;2022-07-18T00:26:39;16.00;90.50
59025;DHT22;44806;48.008;13.666;2022-07-18T00:29:06;15.80;91.20
59025;DHT22;44806;48.008;13.666;2022-07-18T00:31:33;15.60;91.90
59025;DHT22;44806;48.008;13.666;2022-07-18T00:34:01;15.60;92.30
59025;DHT22;44806;48.008;13.666;2022-07-18T00:36:29;15.70;91.50
59025;DHT22;44806;48.008;13.666;2022-07-18T00:38:56;15.70;92.20
59025;DHT22;44806;48.008;13.666;2022-07-18T00:41:23;15.80;92.00
59025;DHT22;44806;48.008;13.666;2022-07-18T00:43:53;15.80;92.10
59025;DHT22;44806;48.008;13.666;2022-07-18T00:46:24;15.90;92.50
59025;DHT22;44806;48.008;13.666;2022-07-18T00:48:53;15.80;92.80
59025;DHT22;44806;48.008;13.666;2022-07-18T00:51:21;15.80;91.80
59025;DHT22;44806;48.008;13.666;2022-07-18T00:53:49;15.90;92.20
59025;DHT22;44806;48.008;13.666;2022-07-18T00:56:17;15.80;92.30
59025;DHT22;44806;48.008;13.666;2022-07-18T00:58:45;15.70;93.00
59025;DHT22;44806;48.008;13.666;2022-07-18T01:01:14;15.70;93.00
59025;DHT22;44806;48.008;13.666;2022-07-18T01:03:58;15.50;93.30
59025;DHT22;44806;48.008;13.666;2022-07-18T01:06:25;15.60;93.70
59025;DHT22;44806;48.008;13.666;2022-07-18T01:08:52;15.40;93.90
59025;DHT22;44806;48.008;13.666;2022-07-18T01:11:19;15.20;94.50
59025;DHT22;44806;48.008;13.666;2022-07-18T01:13:47;15.10;95.20
59025;DHT22;44806;48.008;13.666;2022-07-18T01:16:16;15.00;95.70
59025;DHT22;44806;48.008;13.666;2022-07-18T01:18:45;15.10;95.90
59025;DHT22;44806;48.008;13.666;2022-07-18T01:21:14;15.10;95.60
59025;DHT22;44806;48.008;13.666;2022-07-18T01:23:42;15.10;96.50
59025;DHT22;44806;48.008;13.666;2022-07-18T01:26:09;15.00;96.80
59025;DHT22;44806;48.008;13.666;2022-07-18T01:28:40;15.00;96.80
59025;DHT22;44806;48.008;13.666;2022-07-18T01:31:08;15.00;96.60
59025;DHT22;44806;48.008;13.666;2022-07-18T01:33:35;14.90;96.90
59025;DHT22;44806;48.008;13.666;2022-07-18T01:36:04;14.90;96.10
59025;DHT22;44806;48.008;13.666;2022-07-18T01:38:33;14.90;96.90
59025;DHT22;44806;48.008;13.666;2022-07-18T01:41:00;14.70;97.50
59025;DHT22;44806;48.008;13.666;2022-07-18T01:43:28;14.80;97.40
59025;DHT22;44806;48.008;13.666;2022-07-18T01:45:55;14.90;97.20
59025;DHT22;44806;48.008;13.666;2022-07-18T01:48:23;14.90;97.10
59025;DHT22;44806;48.008;13.666;2022-07-18T01:50:50;14.80;97.90
59025;DHT22;44806;48.008;13.666;2022-07-18T01:53:18;14.60;98.50
59025;DHT22;44806;48.008;13.666;2022-07-18T01:55:46;14.50;99.20
59025;DHT22;44806;48.008;13.666;2022-07-18T01:58:13;14.40;99.60
59025;DHT22;44806;48.008;13.666;2022-07-18T02:00:44;14.50;99.50
59025;DHT22;44806;48.008;13.666;2022-07-18T02:03:11;14.40;99.90
59025;DHT22;44806;48.008;13.666;2022-07-18T02:05:38;14.50;99.90
59025;DHT22;44806;48.008;13.666;2022-07-18T02:08:05;14.50;99.30
59025;DHT22;44806;48.008;13.666;2022-07-18T02:10:32;14.60;98.90
59025;DHT22;44806;48.008;13.666;2022-07-18T02:13:00;14.60;98.90
59025;DHT22;44806;48.008;13.666;2022-07-18T02:15:28;14.70;98.20
59025;DHT22;44806;48.008;13.666;2022-07-18T02:17:55;14.70;98.20
59025;DHT22;44806;48.008;13.666;2022-07-18T02:20:23;14.80;98.10
59025;DHT22;44806;48.008;13.666;2022-07-18T02:22:50;14.80;98.40
59025;DHT22;44806;48.008;13.666;2022-07-18T02:25:17;14.80;98.60
59025;DHT22;44806;48.008;13.666;2022-07-18T02:27:44;14.70;98.80
59025;DHT22;44806;48.008;13.666;2022-07-18T02:30:12;14.70;98.60
59025;DHT22;44806;48.008;13.666;2022-07-18T02:32:40;14.70;99.10
59025;DHT22;44806;48.008;13.666;2022-07-18T02:35:09;14.70;98.80
59025;DHT22;44806;48.008;13.666;2022-07-18T02:37:37;14.70;99.50
59025;DHT22;44806;48.008;13.666;2022-07-18T02:40:07;14.70;99.10
59025;DHT22;44806;48.008;13.666;2022-07-18T02:42:35;14.70;99.10
59025;DHT22;44806;48.008;13.666;2022-07-18T02:45:03;14.70;99.50
59025;DHT22;44806;48.008;13.666;2022-07-18T02:47:32;14.60;98.90
59025;DHT22;44806;48.008;13.666;2022-07-18T02:49:59;14.60;98.80
59025;DHT22;44806;48.008;13.666;2022-07-18T02:52:26;14.60;98.40
59025;DHT22;44806;48.008;13.666;2022-07-18T02:54:53;14.60;98.70
59025;DHT22;44806;48.008;13.666;2022-07-18T02:57:22;14.60;98.90
59025;DHT22;44806;48.008;13.666;2022-07-18T02:59:49;14.50;99.30
59025;DHT22;44806;48.008;13.666;2022-07-18T03:02:16;14.50;99.90
59025;DHT22;44806;48.008;13.666;2022-07-18T03:04:46;14.40;99.80
59025;DHT22;44806;48.008;13.666;2022-07-18T03:07:13;14.40;99.90
59025;DHT22;44806;48.008;13.666;2022-07-18T03:09:40;14.40;99.60
59025;DHT22;44806;48.008;13.666;2022-07-18T03:12:08;14.40;99.70
59025;DHT22;44806;48.008;13.666;2022-07-18T03:14:35;14.30;99.80
59025;DHT22;44806;48.008;13.666;2022-07-18T03:17:02;14.30;99.90
59025;DHT22;44806;48.008;13.666;2022-07-18T03:19:29;14.30;99.60
59025;DHT22;44806;48.008;13.666;2022-07-18T03:22:01;14.30;99.50
59025;DHT22;44806;48.008;13.666;2022-07-18T03:24:28;14.30;99.90
59025;DHT22;44806;48.008;13.666;2022-07-18T03:26:55;14.30;99.90
59025;DHT22;44806;48.008;13.666;2022-07-18T03:29:22;14.30;99.90
59025;DHT22;44806;48.008;13.666;2022-07-18T03:31:50;14.30;99.90
59025;DHT22;44806;48.008;13.666;2022-07-18T03:34:17;14.10;99.90
59025;DHT22;44806;48.008;13.666;2022-07-18T03:36:45;14.00;99.90
59025;DHT22;44806;48.008;13.666;2022-07-18T03:39:13;14.00;99.90
59025;DHT22;44806;48.008;13.666;2022-07-18T03:41:40;13.90;99.90
59025;DHT22;44806;48.008;13.666;2022-07-18T03:44:08;13.80;99.90
59025;DHT22;44806;48.008;13.666;2022-07-18T03:46:35;13.70;99.90
59025;DHT22;44806;48.008;13.666;2022-07-18T03:49:03;13.80;99.90
59025;DHT22;44806;48.008;13.666;2022-07-18T03:51:30;13.70;99.90
59025;DHT22;44806;48.008;13.666;2022-07-18T03:53:57;13.80;99.90
59025;DHT22;44806;48.008;13.666;2022-07-18T03:56:26;13.60;99.90
59025;DHT22;44806;48.008;13.666;2022-07-18T03:58:53;13.60;99.90
59025;DHT22;44806;48.008;13.666;2022-07-18T04:01:20;13.40;99.90
59025;DHT22;44806;48.008;13.666;2022-07-18T04:03:48;13.50;99.90
59025;DHT22;44806;48.008;13.666;2022-07-18T04:06:15;13.50;99.90
59025;DHT22;44806;48.008;13.666;2022-07-18T04:08:42;13.50;99.90
59025;DHT22;44806;48.008;13.666;2022-07-18T04:11:09;13.60;99.90
59025;DHT22;44806;48.008;13.666;2022-07-18T04:13:38;13.60;99.90
59025;DHT22;44806;48.008;13.666;2022-07-18T04:16:05;13.60;99.90
59025;DHT22;44806;48.008;13.666;2022-07-18T04:18:32;13.70;99.90
59025;DHT22;44806;48.008;13.666;2022-07-18T04:20:59;13.70;99.90
59025;DHT22;44806;48.008;13.666;2022-07-18T04:23:27;13.80;99.90
59025;DHT22;44806;48.008;13.666;2022-07-18T04:25:54;13.80;99.90
59025;DHT22;44806;48.008;13.666;2022-07-18T04:28:21;13.80;99.90
59025;DHT22;44806;48.008;13.666;2022-07-18T04:30:49;13.60;99.90
59025;DHT22;44806;48.008;13.666;2022-07-18T04:33:16;13.40;99.90
59025;DHT22;44806;48.008;13.666;2022-07-18T04:35:44;13.30;99.90
59025;DHT22;44806;48.008;13.666;2022-07-18T04:38:11;13.30;99.90
59025;DHT22;44806;48.008;13.666;2022-07-18T04:40:38;13.40;99.90
59025;DHT22;44806;48.008;13.666;2022-07-18T04:43:05;13.50;99.90
59025;DHT22;44806;48.008;13.666;2022-07-18T04:45:33;13.50;99.90
59025;DHT22;44806;48.008;13.666;2022-07-18T04:48:04;13.60;99.90
59025;DHT22;44806;48.008;13.666;2022-07-18T04:50:34;13.70;99.90
59025;DHT22;44806;48.008;13.666;2022-07-18T04:53:04;13.80;99.90
59025;DHT22;44806;48.008;13.666;2022-07-18T04:55:31;13.90;99.90
59025;DHT22;44806;48.008;13.666;2022-07-18T04:58:01;14.00;99.90
59025;DHT22;44806;48.008;13.666;2022-07-18T05:00:31;14.20;99.90
59025;DHT22;44806;48.008;13.666;2022-07-18T05:02:58;14.30;99.90
59025;DHT22;44806;48.008;13.666;2022-07-18T05:05:27;14.40;99.90
59025;DHT22;44806;48.008;13.666;2022-07-18T05:07:55;14.50;99.90
59025;DHT22;44806;48.008;13.666;2022-07-18T05:10:23;14.50;99.90
59025;DHT22;44806;48.008;13.666;2022-07-18T05:12:52;14.60;99.90
59025;DHT22;44806;48.008;13.666;2022-07-18T05:15:20;14.70;99.90
59025;DHT22;44806;48.008;13.666;2022-07-18T05:17:48;14.80;99.90
59025;DHT22;44806;48.008;13.666;2022-07-18T05:20:16;14.90;99.90
59025;DHT22;44806;48.008;13.666;2022-07-18T05:22:45;15.10;99.90
59025;DHT22;44806;48.008;13.666;2022-07-18T05:25:14;15.20;99.90
59025;DHT22;44806;48.008;13.666;2022-07-18T05:27:41;15.30;99.90
59025;DHT22;44806;48.008;13.666;2022-07-18T05:30:11;15.30;99.90
59025;DHT22;44806;48.008;13.666;2022-07-18T05:32:39;15.40;99.90
59025;DHT22;44806;48.008;13.666;2022-07-18T05:35:07;15.50;99.80
59025;DHT22;44806;48.008;13.666;2022-07-18T05:37:35;15.60;99.80
59025;DHT22;44806;48.008;13.666;2022-07-18T05:40:06;15.70;99.50
59025;DHT22;44806;48.008;13.666;2022-07-18T05:42:34;15.90;99.30
59025;DHT22;44806;48.008;13.666;2022-07-18T05:45:01;16.00;98.90
59025;DHT22;44806;48.008;13.666;2022-07-18T05:47:31;16.10;98.70
59025;DHT22;44806;48.008;13.666;2022-07-18T05:49:59;16.30;99.00
59025;DHT22;44806;48.008;13.666;2022-07-18T05:52:26;16.40;98.40
59025;DHT22;44806;48.008;13.666;2022-07-18T05:54:53;16.60;98.20
59025;DHT22;44806;48.008;13.666;2022-07-18T05:57:21;16.70;97.90
59025;DHT22;44806;48.008;13.666;2022-07-18T05:59:49;16.80;97.60
59025;DHT22;44806;48.008;13.666;2022-07-18T06:02:16;16.90;97.20
59025;DHT22;44806;48.008;13.666;2022-07-18T06:04:43;17.10;97.30
59025;DHT22;44806;48.008;13.666;2022-07-18T06:07:10;17.20;97.00
59025;DHT22;44806;48.008;13.666;2022-07-18T06:09:37;17.40;96.70
59025;DHT22;44806;48.008;13.666;2022-07-18T06:12:08;17.50;96.40
59025;DHT22;44806;48.008;13.666;2022-07-18T06:14:37;17.70;96.10
59025;DHT22;44806;48.008;13.666;2022-07-18T06:17:04;17.80;95.80
59025;DHT22;44806;48.008;13.666;2022-07-18T06:19:32;18.00;95.60
59025;DHT22;44806;48.008;13.666;2022-07-18T06:21:59;18.10;95.20
59025;DHT22;44806;48.008;13.666;2022-07-18T06:24:26;18.20;95.00
59025;DHT22;44806;48.008;13.666;2022-07-18T06:26:53;18.40;94.60
59025;DHT22;44806;48.008;13.666;2022-07-18T06:29:20;18.50;94.50
59025;DHT22;44806;48.008;13.666;2022-07-18T06:31:49;18.60;94.50
59025;DHT22;44806;48.008;13.666;2022-07-18T06:34:16;18.70;94.30
59025;DHT22;44806;48.008;13.666;2022-07-18T06:36:43;18.90;93.80
59025;DHT22;44806;48.008;13.666;2022-07-18T06:39:10;19.00;93.80
59025;DHT22;44806;48.008;13.666;2022-07-18T06:41:38;19.10;93.80
59025;DHT22;44806;48.008;13.666;2022-07-18T06:44:05;19.30;93.00
59025;DHT22;44806;48.008;13.666;2022-07-18T06:46:35;19.40;92.70
59025;DHT22;44806;48.008;13.666;2022-07-18T06:49:05;19.50;93.10
59025;DHT22;44806;48.008;13.666;2022-07-18T06:51:33;19.60;93.20
59025;DHT22;44806;48.008;13.666;2022-07-18T06:54:00;19.80;92.50
59025;DHT22;44806;48.008;13.666;2022-07-18T06:56:27;19.90;91.90
59025;DHT22;44806;48.008;13.666;2022-07-18T06:58:54;20.00;91.80
59025;DHT22;44806;48.008;13.666;2022-07-18T07:01:21;20.10;91.30
59025;DHT22;44806;48.008;13.666;2022-07-18T07:03:49;20.30;91.30
59025;DHT22;44806;48.008;13.666;2022-07-18T07:06:18;20.40;91.00
59025;DHT22;44806;48.008;13.666;2022-07-18T07:08:45;20.50;90.20
59025;DHT22;44806;48.008;13.666;2022-07-18T07:11:12;20.60;89.60
59025;DHT22;44806;48.008;13.666;2022-07-18T07:13:39;20.70;90.20
59025;DHT22;44806;48.008;13.666;2022-07-18T07:16:07;20.90;87.30
59025;DHT22;44806;48.008;13.666;2022-07-18T07:18:34;21.00;86.20
59025;DHT22;44806;48.008;13.666;2022-07-18T07:21:01;21.10;84.00
59025;DHT22;44806;48.008;13.666;2022-07-18T07:23:30;21.20;83.60
59025;DHT22;44806;48.008;13.666;2022-07-18T07:25:57;21.30;83.40
59025;DHT22;44806;48.008;13.666;2022-07-18T07:28:24;21.50;85.20
59025;DHT22;44806;48.008;13.666;2022-07-18T07:30:51;21.50;84.70
59025;DHT22;44806;48.008;13.666;2022-07-18T07:33:19;21.70;84.80
59025;DHT22;44806;48.008;13.666;2022-07-18T07:35:46;21.80;82.80
59025;DHT22;44806;48.008;13.666;2022-07-18T07:38:13;21.90;82.40
59025;DHT22;44806;48.008;13.666;2022-07-18T07:40:46;22.10;81.30
59025;DHT22;44806;48.008;13.666;2022-07-18T07:43:16;22.20;80.00
59025;DHT22;44806;48.008;13.666;2022-07-18T07:45:46;22.20;80.20
59025;DHT22;44806;48.008;13.666;2022-07-18T07:48:14;22.40;82.20
59025;DHT22;44806;48.008;13.666;2022-07-18T07:50:42;22.50;79.10
59025;DHT22;44806;48.008;13.666;2022-07-18T07:53:09;22.60;79.20
59025;DHT22;44806;48.008;13.666;2022-07-18T07:55:36;22.70;76.70
59025;DHT22;44806;48.008;13.666;2022-07-18T07:58:05;22.90;78.70
59025;DHT22;44806;48.008;13.666;2022-07-18T08:00:32;23.00;78.20
59025;DHT22;44806;48.008;13.666;2022-07-18T08:03:00;23.10;77.00
59025;DHT22;44806;48.008;13.666;2022-07-18T08:05:29;23.20;78.40
59025;DHT22;44806;48.008;13.666;2022-07-18T08:07:57;23.20;75.60
59025;DHT22;44806;48.008;13.666;2022-07-18T08:10:25;23.40;76.90
59025;DHT22;44806;48.008;13.666;2022-07-18T08:12:53;23.50;78.40
59025;DHT22;44806;48.008;13.666;2022-07-18T08:15:21;23.60;75.60
59025;DHT22;44806;48.008;13.666;2022-07-18T08:17:50;23.80;75.40
59025;DHT22;44806;48.008;13.666;2022-07-18T08:20:17;23.80;74.20
59025;DHT22;44806;48.008;13.666;2022-07-18T08:22:55;24.00;73.90
59025;DHT22;44806;48.008;13.666;2022-07-18T08:25:27;24.10;74.80
59025;DHT22;44806;48.008;13.666;2022-07-18T08:27:56;24.20;73.50
59025;DHT22;44806;48.008;13.666;2022-07-18T08:30:25;24.30;72.30
59025;DHT22;44806;48.008;13.666;2022-07-18T08:32:52;24.40;72.10
59025;DHT22;44806;48.008;13.666;2022-07-18T08:35:21;24.40;71.00
59025;DHT22;44806;48.008;13.666;2022-07-18T08:37:48;24.50;73.80
59025;DHT22;44806;48.008;13.666;2022-07-18T08:40:16;24.70;70.80
59025;DHT22;44806;48.008;13.666;2022-07-18T08:42:43;24.70;70.40
59025;DHT22;44806;48.008;13.666;2022-07-18T08:45:12;24.80;67.90
59025;DHT22;44806;48.008;13.666;2022-07-18T08:47:40;24.80;67.00
59025;DHT22;44806;48.008;13.666;2022-07-18T08:50:15;25.00;66.80
59025;DHT22;44806;48.008;13.666;2022-07-18T08:52:42;25.00;66.40
59025;DHT22;44806;48.008;13.666;2022-07-18T08:55:10;25.00;66.40
59025;DHT22;44806;48.008;13.666;2022-07-18T08:57:38;25.00;64.90
59025;DHT22;44806;48.008;13.666;2022-07-18T09:00:06;25.20;63.40
59025;DHT22;44806;48.008;13.666;2022-07-18T09:02:34;25.30;66.70
59025;DHT22;44806;48.008;13.666;2022-07-18T09:05:04;25.50;63.00
59025;DHT22;44806;48.008;13.666;2022-07-18T09:07:33;25.60;66.90
59025;DHT22;44806;48.008;13.666;2022-07-18T09:10:04;25.60;63.60
59025;DHT22;44806;48.008;13.666;2022-07-18T09:12:32;25.70;65.50
59025;DHT22;44806;48.008;13.666;2022-07-18T09:15:04;26.00;64.80
59025;DHT22;44806;48.008;13.666;2022-07-18T09:17:34;26.20;63.60
59025;DHT22;44806;48.008;13.666;2022-07-18T09:20:05;26.40;63.20
59025;DHT22;44806;48.008;13.666;2022-07-18T09:22:36;26.40;61.80
59025;DHT22;44806;48.008;13.666;2022-07-18T09:25:06;26.60;61.70
59025;DHT22;44806;48.008;13.666;2022-07-18T09:27:37;26.80;59.30
59025;DHT22;44806;48.008;13.666;2022-07-18T09:30:14;26.80;60.70
59025;DHT22;44806;48.008;13.666;2022-07-18T09:32:43;27.10;58.40
59025;DHT22;44806;48.008;13.666;2022-07-18T09:35:13;27.20;55.60
59025;DHT22;44806;48.008;13.666;2022-07-18T09:37:42;27.20;55.20
59025;DHT22;44806;48.008;13.666;2022-07-18T09:40:20;27.30;57.30
59025;DHT22;44806;48.008;13.666;2022-07-18T09:42:49;27.50;56.10
59025;DHT22;44806;48.008;13.666;2022-07-18T09:45:25;27.60;54.60
59025;DHT22;44806;48.008;13.666;2022-07-18T09:47:54;27.50;53.80
59025;DHT22;44806;48.008;13.666;2022-07-18T09:50:25;27.60;57.00
59025;DHT22;44806;48.008;13.666;2022-07-18T09:52:57;27.60;54.80
59025;DHT22;44806;48.008;13.666;2022-07-18T09:55:24;27.80;56.90
59025;DHT22;44806;48.008;13.666;2022-07-18T09:58:02;27.80;55.70
59025;DHT22;44806;48.008;13.666;2022-07-18T10:00:32;27.90;54.10
59025;DHT22;44806;48.008;13.666;2022-07-18T10:03:00;28.20;56.70
59025;DHT22;44806;48.008;13.666;2022-07-18T10:05:30;28.30;52.60
59025;DHT22;44806;48.008;13.666;2022-07-18T10:07:58;28.50;50.40
59025;DHT22;44806;48.008;13.666;2022-07-18T10:10:27;28.70;53.30
59025;DHT22;44806;48.008;13.666;2022-07-18T10:12:56;28.80;50.00
59025;DHT22;44806;48.008;13.666;2022-07-18T10:15:27;28.90;54.00
59025;DHT22;44806;48.008;13.666;2022-07-18T10:17:55;29.10;50.70
59025;DHT22;44806;48.008;13.666;2022-07-18T10:20:29;29.20;50.10
59025;DHT22;44806;48.008;13.666;2022-07-18T10:22:58;29.40;53.20
59025;DHT22;44806;48.008;13.666;2022-07-18T10:25:29;29.60;51.40
59025;DHT22;44806;48.008;13.666;2022-07-18T10:28:05;29.80;51.90
59025;DHT22;44806;48.008;13.666;2022-07-18T10:30:37;29.90;49.20
59025;DHT22;44806;48.008;13.666;2022-07-18T10:36:13;30.20;47.30
59025;DHT22;44806;48.008;13.666;2022-07-18T10:39:03;30.30;47.80
59025;DHT22;44806;48.008;13.666;2022-07-18T10:41:30;30.30;47.40
59025;DHT22;44806;48.008;13.666;2022-07-18T10:43:57;30.20;46.50
59025;DHT22;44806;48.008;13.666;2022-07-18T10:46:24;30.40;48.30
59025;DHT22;44806;48.008;13.666;2022-07-18T10:49:11;30.40;43.40
59025;DHT22;44806;48.008;13.666;2022-07-18T10:51:40;30.50;44.10
59025;DHT22;44806;48.008;13.666;2022-07-18T10:54:12;30.40;47.10
59025;DHT22;44806;48.008;13.666;2022-07-18T10:57:05;30.40;45.00
59025;DHT22;44806;48.008;13.666;2022-07-18T11:00:02;30.40;47.60
59025;DHT22;44806;48.008;13.666;2022-07-18T11:02:34;30.40;46.20
59025;DHT22;44806;48.008;13.666;2022-07-18T11:05:32;30.50;47.10
59025;DHT22;44806;48.008;13.666;2022-07-18T11:08:18;30.70;44.80
59025;DHT22;44806;48.008;13.666;2022-07-18T11:11:10;30.90;43.80
59025;DHT22;44806;48.008;13.666;2022-07-18T11:13:40;30.90;44.20
59025;DHT22;44806;48.008;13.666;2022-07-18T11:16:10;31.20;47.10
59025;DHT22;44806;48.008;13.666;2022-07-18T11:21:38;31.10;42.60
59025;DHT22;44806;48.008;13.666;2022-07-18T11:24:08;31.10;43.80
59025;DHT22;44806;48.008;13.666;2022-07-18T11:26:37;31.40;45.20
59025;DHT22;44806;48.008;13.666;2022-07-18T11:29:06;31.60;43.00
59025;DHT22;44806;48.008;13.666;2022-07-18T11:31:43;31.50;43.10
59025;DHT22;44806;48.008;13.666;2022-07-18T11:34:10;31.50;43.00
59025;DHT22;44806;48.008;13.666;2022-07-18T11:36:39;31.50;46.30
59025;DHT22;44806;48.008;13.666;2022-07-18T11:39:09;31.70;42.90
59025;DHT22;44806;48.008;13.666;2022-07-18T11:41:37;31.70;43.40
59025;DHT22;44806;48.008;13.666;2022-07-18T11:44:15;31.70;42.20
59025;DHT22;44806;48.008;13.666;2022-07-18T11:46:43;32.00;44.80
59025;DHT22;44806;48.008;13.666;2022-07-18T11:49:10;32.20;43.90
59025;DHT22;44806;48.008;13.666;2022-07-18T11:51:40;32.30;42.80
59025;DHT22;44806;48.008;13.666;2022-07-18T11:54:09;32.30;44.60
59025;DHT22;44806;48.008;13.666;2022-07-18T11:56:47;32.20;42.40
59025;DHT22;44806;48.008;13.666;2022-07-18T11:59:15;31.40;39.90
59025;DHT22;44806;48.008;13.666;2022-07-18T12:01:42;31.30;43.30
59025;DHT22;44806;48.008;13.666;2022-07-18T12:04:17;31.70;43.70
59025;DHT22;44806;48.008;13.666;2022-07-18T12:07:12;31.80;42.00
59025;DHT22;44806;48.008;13.666;2022-07-18T12:09:43;31.70;42.60
59025;DHT22;44806;48.008;13.666;2022-07-18T12:12:11;31.40;42.10
59025;DHT22;44806;48.008;13.666;2022-07-18T12:14:39;31.80;45.70
59025;DHT22;44806;48.008;13.666;2022-07-18T12:17:07;31.60;42.20
59025;DHT22;44806;48.008;13.666;2022-07-18T12:19:35;31.90;43.70
59025;DHT22;44806;48.008;13.666;2022-07-18T12:22:08;32.00;43.20
59025;DHT22;44806;48.008;13.666;2022-07-18T12:24:39;32.10;44.40
59025;DHT22;44806;48.008;13.666;2022-07-18T12:27:19;32.30;41.30
59025;DHT22;44806;48.008;13.666;2022-07-18T12:30:10;32.60;43.90
59025;DHT22;44806;48.008;13.666;2022-07-18T12:32:41;32.80;41.20
59025;DHT22;44806;48.008;13.666;2022-07-18T12:35:10;32.90;43.60
59025;DHT22;44806;48.008;13.666;2022-07-18T12:37:38;32.70;39.60
59025;DHT22;44806;48.008;13.666;2022-07-18T12:40:07;32.20;41.80
59025;DHT22;44806;48.008;13.666;2022-07-18T12:42:38;32.20;41.40
59025;DHT22;44806;48.008;13.666;2022-07-18T12:45:07;32.30;43.10
59025;DHT22;44806;48.008;13.666;2022-07-18T12:47:35;32.50;42.50
59025;DHT22;44806;48.008;13.666;2022-07-18T12:50:02;32.70;41.10
59025;DHT22;44806;48.008;13.666;2022-07-18T12:52:35;32.60;41.90
59025;DHT22;44806;48.008;13.666;2022-07-18T12:55:05;32.60;40.60
59025;DHT22;44806;48.008;13.666;2022-07-18T12:57:32;32.80;41.90
59025;DHT22;44806;48.008;13.666;2022-07-18T13:00:01;32.80;40.80
59025;DHT22;44806;48.008;13.666;2022-07-18T13:02:29;32.80;39.90
59025;DHT22;44806;48.008;13.666;2022-07-18T13:04:56;32.50;42.60
59025;DHT22;44806;48.008;13.666;2022-07-18T13:07:23;32.80;42.80
59025;DHT22;44806;48.008;13.666;2022-07-18T13:09:50;32.90;40.40
59025;DHT22;44806;48.008;13.666;2022-07-18T13:12:18;33.00;40.20
59025;DHT22;44806;48.008;13.666;2022-07-18T13:14:45;33.30;38.80
59025;DHT22;44806;48.008;13.666;2022-07-18T13:17:14;33.40;41.60
59025;DHT22;44806;48.008;13.666;2022-07-18T13:19:41;33.70;40.80
59025;DHT22;44806;48.008;13.666;2022-07-18T13:22:08;33.80;39.60
59025;DHT22;44806;48.008;13.666;2022-07-18T13:24:35;34.10;42.00
59025;DHT22;44806;48.008;13.666;2022-07-18T13:27:03;34.00;39.60
59025;DHT22;44806;48.008;13.666;2022-07-18T13:29:31;33.70;37.90
59025;DHT22;44806;48.008;13.666;2022-07-18T13:32:00;33.40;40.70
59025;DHT22;44806;48.008;13.666;2022-07-18T13:34:30;33.60;40.10
59025;DHT22;44806;48.008;13.666;2022-07-18T13:36:57;33.90;38.70
59025;DHT22;44806;48.008;13.666;2022-07-18T13:39:24;34.00;42.60
59025;DHT22;44806;48.008;13.666;2022-07-18T13:41:51;33.90;37.20
59025;DHT22;44806;48.008;13.666;2022-07-18T13:44:18;33.40;37.40
59025;DHT22;44806;48.008;13.666;2022-07-18T13:46:45;32.20;38.90
59025;DHT22;44806;48.008;13.666;2022-07-18T13:49:12;32.60;40.10
59025;DHT22;44806;48.008;13.666;2022-07-18T13:51:43;32.70;41.10
59025;DHT22;44806;48.008;13.666;2022-07-18T13:54:10;33.20;41.70
59025;DHT22;44806;48.008;13.666;2022-07-18T13:56:37;32.90;41.90
59025;DHT22;44806;48.008;13.666;2022-07-18T13:59:04;33.20;39.10
59025;DHT22;44806;48.008;13.666;2022-07-18T14:01:31;33.40;40.20
59025;DHT22;44806;48.008;13.666;2022-07-18T14:03:58;33.30;39.90
59025;DHT22;44806;48.008;13.666;2022-07-18T14:06:26;33.50;39.80
59025;DHT22;44806;48.008;13.666;2022-07-18T14:08:55;33.70;41.40
59025;DHT22;44806;48.008;13.666;2022-07-18T14:11:22;33.70;38.30
59025;DHT22;44806;48.008;13.666;2022-07-18T14:13:49;33.90;41.80
59025;DHT22;44806;48.008;13.666;2022-07-18T14:16:16;34.20;41.20
59025;DHT22;44806;48.008;13.666;2022-07-18T14:18:43;34.00;37.80
59025;DHT22;44806;48.008;13.666;2022-07-18T14:21:10;34.10;41.40
59025;DHT22;44806;48.008;13.666;2022-07-18T14:23:37;34.00;39.70
59025;DHT22;44806;48.008;13.666;2022-07-18T14:26:06;34.20;40.20
59025;DHT22;44806;48.008;13.666;2022-07-18T14:28:33;34.70;38.90
59025;DHT22;44806;48.008;13.666;2022-07-18T14:31:01;34.50;40.10
59025;DHT22;44806;48.008;13.666;2022-07-18T14:33:28;34.90;38.50
59025;DHT22;44806;48.008;13.666;2022-07-18T14:35:55;34.70;37.70
59025;DHT22;44806;48.008;13.666;2022-07-18T14:38:22;34.70;37.50
59025;DHT22;44806;48.008;13.666;2022-07-18T14:40:58;34.90;38.90
59025;DHT22;44806;48.008;13.666;2022-07-18T14:43:27;34.90;38.50
59025;DHT22;44806;48.008;13.666;2022-07-18T14:45:54;34.90;36.90
59025;DHT22;44806;48.008;13.666;2022-07-18T14:48:25;34.60;37.70
59025;DHT22;44806;48.008;13.666;2022-07-18T14:50:52;34.20;39.00
59025;DHT22;44806;48.008;13.666;2022-07-18T14:53:19;34.50;37.90
59025;DHT22;44806;48.008;13.666;2022-07-18T14:55:46;34.70;36.60
59025;DHT22;44806;48.008;13.666;2022-07-18T14:58:13;34.80;38.70
59025;DHT22;44806;48.008;13.666;2022-07-18T15:00:42;35.00;37.60
59025;DHT22;44806;48.008;13.666;2022-07-18T15:03:10;34.90;37.90
59025;DHT22;44806;48.008;13.666;2022-07-18T15:05:40;34.70;38.70
59025;DHT22;44806;48.008;13.666;2022-07-18T15:08:08;34.80;38.90
59025;DHT22;44806;48.008;13.666;2022-07-18T15:10:35;34.70;36.90
59025;DHT22;44806;48.008;13.666;2022-07-18T15:13:02;34.50;36.70
59025;DHT22;44806;48.008;13.666;2022-07-18T15:15:29;34.40;36.90
59025;DHT22;44806;48.008;13.666;2022-07-18T15:17:58;34.40;38.70
59025;DHT22;44806;48.008;13.666;2022-07-18T15:20:25;34.50;37.90
59025;DHT22;44806;48.008;13.666;2022-07-18T15:22:52;34.50;37.60
59025;DHT22;44806;48.008;13.666;2022-07-18T15:25:19;34.30;37.80
59025;DHT22;44806;48.008;13.666;2022-07-18T15:27:46;34.40;35.90
59025;DHT22;44806;48.008;13.666;2022-07-18T15:30:14;34.40;36.80
59025;DHT22;44806;48.008;13.666;2022-07-18T15:32:41;33.90;37.20